sensor_id;sensor_type;location;lat;lon;timestamp;pressure;altitude;pressure_sealevel;temperature;humidity
76460;BME280;65299;46.084;18.762;2023-09-08T00:02:03;101145.75;;;17.34;65.79
76460;BME280;65299;46.084;18.762;2023-09-08T00:05:04;101150.41;;;17.53;64.89
76460;BME280;65299;46.084;18.762;2023-09-08T00:08:05;101153.81;;;17.34;65.58
76460;BME280;65299;46.084;18.762;2023-09-08T00:11:05;101151.75;;;17.26;65.93
76460;BME280;65299;46.084;18.762;2023-09-08T00:14:07;101150.47;;;17.19;66.13
76460;BME280;65299;46.084;18.762;2023-09-08T00:17:07;101148.66;;;17.14;65.43
76460;BME280;65299;46.084;18.762;2023-09-08T00:20:08;101152.09;;;17.20;65.46
76460;BME280;65299;46.084;18.762;2023-09-08T00:23:09;101151.75;;;17.26;64.68
76460;BME280;65299;46.084;18.762;2023-09-08T00:26:09;101161.22;;;17.19;64.98
76460;BME280;65299;46.084;18.762;2023-09-08T00:29:09;101152.31;;;17.23;65.01
76460;BME280;65299;46.084;18.762;2023-09-08T00:32:10;101144.72;;;17.07;65.66
76460;BME280;65299;46.084;18.762;2023-09-08T00:35:11;101155.97;;;17.09;65.54
76460;BME280;65299;46.084;18.762;2023-09-08T00:38:13;101154.63;;;17.06;65.67
76460;BME280;65299;46.084;18.762;2023-09-08T00:41:13;101147.91;;;17.09;65.38
76460;BME280;65299;46.084;18.762;2023-09-08T00:44:14;101147.88;;;17.14;65.13
76460;BME280;65299;46.084;18.762;2023-09-08T00:47:14;101140.44;;;17.06;65.33
76460;BME280;65299;46.084;18.762;2023-09-08T00:50:15;101142.38;;;17.00;65.65
76460;BME280;65299;46.084;18.762;2023-09-08T00:53:15;101143.69;;;17.03;65.46
76460;BME280;65299;46.084;18.762;2023-09-08T00:56:15;101140.78;;;16.99;65.69
76460;BME280;65299;46.084;18.762;2023-09-08T00:59:16;101139.66;;;17.05;65.48
76460;BME280;65299;46.084;18.762;2023-09-08T01:02:17;101140.03;;;17.17;64.57
76460;BME280;65299;46.084;18.762;2023-09-08T01:05:17;101130.28;;;17.03;65.37
76460;BME280;65299;46.084;18.762;2023-09-08T01:08:18;101137.47;;;17.07;65.37
76460;BME280;65299;46.084;18.762;2023-09-08T01:11:20;101136.44;;;17.03;65.72
76460;BME280;65299;46.084;18.762;2023-09-08T01:14:21;101134.09;;;16.97;65.76
76460;BME280;65299;46.084;18.762;2023-09-08T01:17:21;101133.13;;;16.88;66.01
76460;BME280;65299;46.084;18.762;2023-09-08T01:20:35;101130.56;;;17.01;65.49
76460;BME280;65299;46.084;18.762;2023-09-08T01:27:17;101126.44;;;17.09;65.10
76460;BME280;65299;46.084;18.762;2023-09-08T01:30:19;101135.63;;;17.03;65.48
76460;BME280;65299;46.084;18.762;2023-09-08T01:33:22;101134.31;;;17.00;65.63
76460;BME280;65299;46.084;18.762;2023-09-08T01:36:22;101131.41;;;16.97;65.82
76460;BME280;65299;46.084;18.762;2023-09-08T01:39:22;101135.63;;;17.03;65.62
76460;BME280;65299;46.084;18.762;2023-09-08T01:42:23;101130.78;;;17.05;65.56
76460;BME280;65299;46.084;18.762;2023-09-08T01:45:23;101134.69;;;17.17;65.29
76460;BME280;65299;46.084;18.762;2023-09-08T01:48:24;101127.69;;;17.16;64.92
76460;BME280;65299;46.084;18.762;2023-09-08T01:51:24;101138.59;;;17.25;64.69
76460;BME280;65299;46.084;18.762;2023-09-08T01:54:24;101137.50;;;17.55;64.27
76460;BME280;65299;46.084;18.762;2023-09-08T01:57:25;101135.59;;;17.08;65.84
76460;BME280;65299;46.084;18.762;2023-09-08T02:00:25;101144.09;;;17.15;65.39
76460;BME280;65299;46.084;18.762;2023-09-08T02:03:25;101142.63;;;17.04;65.90
76460;BME280;65299;46.084;18.762;2023-09-08T02:06:26;101138.22;;;17.13;65.71
76460;BME280;65299;46.084;18.762;2023-09-08T02:09:38;101137.59;;;16.97;66.22
76460;BME280;65299;46.084;18.762;2023-09-08T02:12:38;101134.50;;;17.09;65.80
76460;BME280;65299;46.084;18.762;2023-09-08T02:15:39;101131.63;;;17.00;66.13
76460;BME280;65299;46.084;18.762;2023-09-08T02:18:39;101130.88;;;17.00;66.17
76460;BME280;65299;46.084;18.762;2023-09-08T02:21:39;101129.88;;;17.14;65.52
76460;BME280;65299;46.084;18.762;2023-09-08T02:24:40;101130.25;;;17.08;65.49
76460;BME280;65299;46.084;18.762;2023-09-08T02:27:40;101140.38;;;17.11;65.23
76460;BME280;65299;46.084;18.762;2023-09-08T02:30:41;101141.00;;;17.03;65.73
76460;BME280;65299;46.084;18.762;2023-09-08T02:33:41;101134.94;;;16.92;66.37
76460;BME280;65299;46.084;18.762;2023-09-08T02:36:41;101131.09;;;17.03;66.12
76460;BME280;65299;46.084;18.762;2023-09-08T02:39:42;101136.22;;;17.00;66.00
76460;BME280;65299;46.084;18.762;2023-09-08T02:42:42;101129.72;;;17.06;66.07
76460;BME280;65299;46.084;18.762;2023-09-08T02:45:43;101130.16;;;16.89;66.52
76460;BME280;65299;46.084;18.762;2023-09-08T02:48:43;101125.09;;;16.88;66.86
76460;BME280;65299;46.084;18.762;2023-09-08T02:51:43;101127.25;;;16.86;66.58
76460;BME280;65299;46.084;18.762;2023-09-08T02:54:44;101129.78;;;16.72;67.38
76460;BME280;65299;46.084;18.762;2023-09-08T02:57:44;101130.63;;;16.68;67.57
76460;BME280;65299;46.084;18.762;2023-09-08T03:00:44;101130.06;;;16.71;67.47
76460;BME280;65299;46.084;18.762;2023-09-08T03:03:46;101121.75;;;16.72;67.04
76460;BME280;65299;46.084;18.762;2023-09-08T03:06:47;101124.00;;;16.60;67.90
76460;BME280;65299;46.084;18.762;2023-09-08T03:09:47;101131.53;;;16.58;67.98
76460;BME280;65299;46.084;18.762;2023-09-08T03:12:47;101123.53;;;16.48;68.08
76460;BME280;65299;46.084;18.762;2023-09-08T03:15:48;101126.28;;;16.43;68.53
76460;BME280;65299;46.084;18.762;2023-09-08T03:18:48;101122.75;;;16.52;68.11
76460;BME280;65299;46.084;18.762;2023-09-08T03:21:49;101132.50;;;16.33;69.01
76460;BME280;65299;46.084;18.762;2023-09-08T03:24:49;101127.66;;;16.35;68.63
76460;BME280;65299;46.084;18.762;2023-09-08T03:27:49;101129.81;;;16.33;69.02
76460;BME280;65299;46.084;18.762;2023-09-08T03:30:50;101127.66;;;16.35;68.78
76460;BME280;65299;46.084;18.762;2023-09-08T03:33:50;101127.63;;;16.40;68.74
76460;BME280;65299;46.084;18.762;2023-09-08T03:36:53;101126.81;;;16.40;68.53
76460;BME280;65299;46.084;18.762;2023-09-08T03:39:53;101127.94;;;16.39;68.54
76460;BME280;65299;46.084;18.762;2023-09-08T03:42:54;101135.16;;;16.38;68.75
76460;BME280;65299;46.084;18.762;2023-09-08T03:45:56;101130.91;;;16.32;68.81
76460;BME280;65299;46.084;18.762;2023-09-08T03:48:56;101138.50;;;16.20;69.83
76460;BME280;65299;46.084;18.762;2023-09-08T03:52:00;101132.50;;;16.33;68.85
76460;BME280;65299;46.084;18.762;2023-09-08T03:55:01;101130.31;;;16.40;68.89
76460;BME280;65299;46.084;18.762;2023-09-08T03:58:01;101130.41;;;16.25;69.52
76460;BME280;65299;46.084;18.762;2023-09-08T04:01:02;101130.50;;;16.15;69.57
76460;BME280;65299;46.084;18.762;2023-09-08T04:04:03;101128.41;;;16.07;70.24
76460;BME280;65299;46.084;18.762;2023-09-08T04:07:03;101136.50;;;16.02;70.38
76460;BME280;65299;46.084;18.762;2023-09-08T04:10:04;101139.69;;;16.04;70.22
76460;BME280;65299;46.084;18.762;2023-09-08T04:13:04;101141.34;;;16.00;70.50
76460;BME280;65299;46.084;18.762;2023-09-08T04:16:05;101140.97;;;16.12;70.40
76460;BME280;65299;46.084;18.762;2023-09-08T04:19:05;101140.53;;;15.95;70.60
76460;BME280;65299;46.084;18.762;2023-09-08T04:22:05;101146.41;;;16.02;70.63
76460;BME280;65299;46.084;18.762;2023-09-08T04:25:06;101143.66;;;16.12;70.32
76460;BME280;65299;46.084;18.762;2023-09-08T04:28:07;101143.94;;;16.10;70.28
76460;BME280;65299;46.084;18.762;2023-09-08T04:31:07;101141.72;;;16.22;69.64
76460;BME280;65299;46.084;18.762;2023-09-08T04:34:08;101149.38;;;16.34;69.58
76460;BME280;65299;46.084;18.762;2023-09-08T04:37:08;101144.41;;;16.17;70.01
76460;BME280;65299;46.084;18.762;2023-09-08T04:40:09;101144.03;;;16.29;69.73
76460;BME280;65299;46.084;18.762;2023-09-08T04:43:10;101147.84;;;16.23;69.97
76460;BME280;65299;46.084;18.762;2023-09-08T04:46:10;101148.38;;;16.25;69.77
76460;BME280;65299;46.084;18.762;2023-09-08T04:49:10;101141.13;;;16.30;69.98
76460;BME280;65299;46.084;18.762;2023-09-08T04:52:11;101139.47;;;16.34;69.53
76460;BME280;65299;46.084;18.762;2023-09-08T04:55:11;101144.41;;;16.56;69.16
76460;BME280;65299;46.084;18.762;2023-09-08T04:58:12;101151.13;;;16.53;68.77
76460;BME280;65299;46.084;18.762;2023-09-08T05:01:12;101149.13;;;16.98;68.21
76460;BME280;65299;46.084;18.762;2023-09-08T05:04:13;101155.75;;;16.77;68.19
76460;BME280;65299;46.084;18.762;2023-09-08T05:07:13;101162.72;;;16.78;68.31
76460;BME280;65299;46.084;18.762;2023-09-08T05:10:14;101166.34;;;16.92;68.17
76460;BME280;65299;46.084;18.762;2023-09-08T05:13:16;101177.63;;;16.89;68.17
76460;BME280;65299;46.084;18.762;2023-09-08T05:16:17;101181.63;;;16.91;67.96
76460;BME280;65299;46.084;18.762;2023-09-08T05:19:19;101176.25;;;17.20;68.03
76460;BME280;65299;46.084;18.762;2023-09-08T05:22:19;101179.94;;;17.24;67.47
76460;BME280;65299;46.084;18.762;2023-09-08T05:25:20;101178.47;;;17.36;67.26
76460;BME280;65299;46.084;18.762;2023-09-08T05:28:20;101188.53;;;17.50;66.71
76460;BME280;65299;46.084;18.762;2023-09-08T05:31:20;101189.34;;;17.50;66.58
76460;BME280;65299;46.084;18.762;2023-09-08T05:34:21;101188.28;;;17.70;66.73
76460;BME280;65299;46.084;18.762;2023-09-08T05:37:21;101192.25;;;17.77;66.19
76460;BME280;65299;46.084;18.762;2023-09-08T05:40:22;101188.81;;;17.90;65.88
76460;BME280;65299;46.084;18.762;2023-09-08T05:43:25;101189.41;;;18.24;64.76
76460;BME280;65299;46.084;18.762;2023-09-08T05:46:26;101198.63;;;18.18;65.35
76460;BME280;65299;46.084;18.762;2023-09-08T05:49:26;101210.34;;;18.65;63.88
76460;BME280;65299;46.084;18.762;2023-09-08T05:52:26;101197.75;;;18.42;64.63
76460;BME280;65299;46.084;18.762;2023-09-08T05:55:28;101204.28;;;18.73;63.43
76460;BME280;65299;46.084;18.762;2023-09-08T05:58:28;101206.66;;;19.07;62.31
76460;BME280;65299;46.084;18.762;2023-09-08T06:01:30;101212.00;;;18.93;62.77
76460;BME280;65299;46.084;18.762;2023-09-08T06:04:31;101210.03;;;19.12;61.90
76460;BME280;65299;46.084;18.762;2023-09-08T06:07:33;101212.97;;;19.29;62.26
76460;BME280;65299;46.084;18.762;2023-09-08T06:10:33;101211.50;;;19.64;60.99
76460;BME280;65299;46.084;18.762;2023-09-08T06:13:34;101204.84;;;19.34;62.14
76460;BME280;65299;46.084;18.762;2023-09-08T06:16:34;101210.00;;;19.44;61.10
76460;BME280;65299;46.084;18.762;2023-09-08T06:19:35;101203.72;;;19.62;61.09
76460;BME280;65299;46.084;18.762;2023-09-08T06:22:36;101206.00;;;19.69;60.87
76460;BME280;65299;46.084;18.762;2023-09-08T06:25:36;101205.31;;;19.77;60.35
76460;BME280;65299;46.084;18.762;2023-09-08T06:28:37;101203.75;;;19.98;60.39
76460;BME280;65299;46.084;18.762;2023-09-08T06:31:37;101197.50;;;19.75;61.14
76460;BME280;65299;46.084;18.762;2023-09-08T06:34:37;101202.38;;;20.01;60.46
76460;BME280;65299;46.084;18.762;2023-09-08T06:37:38;101193.25;;;20.24;59.92
76460;BME280;65299;46.084;18.762;2023-09-08T06:40:39;101198.03;;;20.49;59.43
76460;BME280;65299;46.084;18.762;2023-09-08T06:43:40;101199.03;;;20.53;59.62
76460;BME280;65299;46.084;18.762;2023-09-08T06:46:40;101202.69;;;20.79;58.43
76460;BME280;65299;46.084;18.762;2023-09-08T06:49:41;101200.84;;;20.88;58.65
76460;BME280;65299;46.084;18.762;2023-09-08T06:52:41;101196.19;;;21.02;58.36
76460;BME280;65299;46.084;18.762;2023-09-08T06:55:42;101207.56;;;21.21;57.16
76460;BME280;65299;46.084;18.762;2023-09-08T06:58:43;101200.38;;;21.17;57.42
76460;BME280;65299;46.084;18.762;2023-09-08T07:01:43;101199.66;;;21.33;55.82
76460;BME280;65299;46.084;18.762;2023-09-08T07:04:47;101207.22;;;21.62;55.91
76460;BME280;65299;46.084;18.762;2023-09-08T07:07:48;101195.06;;;21.82;55.43
76460;BME280;65299;46.084;18.762;2023-09-08T07:10:52;101194.44;;;22.02;56.21
76460;BME280;65299;46.084;18.762;2023-09-08T07:13:53;101190.94;;;22.01;55.79
76460;BME280;65299;46.084;18.762;2023-09-08T07:16:54;101195.88;;;21.99;56.16
76460;BME280;65299;46.084;18.762;2023-09-08T07:19:54;101197.25;;;21.80;57.17
76460;BME280;65299;46.084;18.762;2023-09-08T07:22:54;101193.63;;;21.84;56.52
76460;BME280;65299;46.084;18.762;2023-09-08T07:25:55;101197.59;;;21.87;56.13
76460;BME280;65299;46.084;18.762;2023-09-08T07:28:55;101198.28;;;22.18;55.58
76460;BME280;65299;46.084;18.762;2023-09-08T07:31:56;101197.94;;;22.37;55.08
76460;BME280;65299;46.084;18.762;2023-09-08T07:34:56;101199.88;;;22.19;53.50
76460;BME280;65299;46.084;18.762;2023-09-08T07:37:57;101191.59;;;22.41;53.87
76460;BME280;65299;46.084;18.762;2023-09-08T07:40:57;101196.03;;;22.80;53.31
76460;BME280;65299;46.084;18.762;2023-09-08T07:44:00;101197.78;;;22.84;53.65
76460;BME280;65299;46.084;18.762;2023-09-08T07:47:00;101199.91;;;23.17;52.65
76460;BME280;65299;46.084;18.762;2023-09-08T07:50:30;101197.78;;;22.84;53.57
76460;BME280;65299;46.084;18.762;2023-09-08T07:53:31;101190.59;;;22.54;53.41
76460;BME280;65299;46.084;18.762;2023-09-08T07:56:32;101197.78;;;22.76;51.55
76460;BME280;65299;46.084;18.762;2023-09-08T07:59:32;101206.44;;;23.07;51.25
76460;BME280;65299;46.084;18.762;2023-09-08T08:02:33;101200.66;;;23.17;51.38
76460;BME280;65299;46.084;18.762;2023-09-08T08:05:33;101194.75;;;23.32;51.66
76460;BME280;65299;46.084;18.762;2023-09-08T08:08:34;101195.63;;;23.53;51.46
76460;BME280;65299;46.084;18.762;2023-09-08T08:11:38;101193.16;;;23.89;49.61
76460;BME280;65299;46.084;18.762;2023-09-08T08:14:39;101188.06;;;23.88;50.55
76460;BME280;65299;46.084;18.762;2023-09-08T08:17:39;101190.19;;;24.03;51.42
76460;BME280;65299;46.084;18.762;2023-09-08T08:20:40;101183.66;;;24.04;51.17
76460;BME280;65299;46.084;18.762;2023-09-08T08:23:40;101178.06;;;24.42;47.06
76460;BME280;65299;46.084;18.762;2023-09-08T08:26:41;101181.97;;;24.86;45.72
76460;BME280;65299;46.084;18.762;2023-09-08T08:29:41;101174.41;;;25.03;47.35
76460;BME280;65299;46.084;18.762;2023-09-08T08:32:42;101171.72;;;24.70;47.39
76460;BME280;65299;46.084;18.762;2023-09-08T08:35:48;101174.47;;;24.83;50.04
76460;BME280;65299;46.084;18.762;2023-09-08T08:38:50;101183.78;;;24.94;49.24
76460;BME280;65299;46.084;18.762;2023-09-08T08:41:50;101179.28;;;25.34;47.91
76460;BME280;65299;46.084;18.762;2023-09-08T08:44:51;101179.78;;;25.48;43.72
76460;BME280;65299;46.084;18.762;2023-09-08T08:47:53;101180.44;;;25.69;42.97
76460;BME280;65299;46.084;18.762;2023-09-08T08:50:54;101184.53;;;25.63;41.55
76460;BME280;65299;46.084;18.762;2023-09-08T08:53:55;101186.09;;;25.76;43.21
76460;BME280;65299;46.084;18.762;2023-09-08T08:56:57;101183.75;;;26.14;42.17
76460;BME280;65299;46.084;18.762;2023-09-08T08:59:58;101178.19;;;25.59;41.22
76460;BME280;65299;46.084;18.762;2023-09-08T09:02:59;101180.63;;;25.76;42.85
76460;BME280;65299;46.084;18.762;2023-09-08T09:06:01;101177.91;;;25.76;43.33
76460;BME280;65299;46.084;18.762;2023-09-08T09:09:02;101180.69;;;26.16;43.12
76460;BME280;65299;46.084;18.762;2023-09-08T09:12:04;101180.94;;;26.39;41.29
76460;BME280;65299;46.084;18.762;2023-09-08T09:15:06;101178.91;;;26.36;40.90
76460;BME280;65299;46.084;18.762;2023-09-08T09:18:08;101173.47;;;26.63;40.51
76460;BME280;65299;46.084;18.762;2023-09-08T09:21:08;101168.31;;;26.46;42.29
76460;BME280;65299;46.084;18.762;2023-09-08T09:24:14;101167.84;;;26.28;42.15
76460;BME280;65299;46.084;18.762;2023-09-08T09:27:15;101175.69;;;26.73;41.77
76460;BME280;65299;46.084;18.762;2023-09-08T09:30:15;101176.50;;;26.89;41.92
76460;BME280;65299;46.084;18.762;2023-09-08T09:33:16;101169.44;;;26.73;42.59
76460;BME280;65299;46.084;18.762;2023-09-08T09:36:20;101168.34;;;26.62;41.33
76460;BME280;65299;46.084;18.762;2023-09-08T09:39:22;101166.00;;;26.76;41.12
76460;BME280;65299;46.084;18.762;2023-09-08T09:42:23;101168.13;;;27.29;39.97
76460;BME280;65299;46.084;18.762;2023-09-08T09:45:25;101160.84;;;27.18;40.35
76460;BME280;65299;46.084;18.762;2023-09-08T09:48:27;101157.50;;;27.24;37.26
76460;BME280;65299;46.084;18.762;2023-09-08T09:51:28;101151.94;;;27.52;38.76
76460;BME280;65299;46.084;18.762;2023-09-08T09:54:29;101156.78;;;27.77;38.30
76460;BME280;65299;46.084;18.762;2023-09-08T09:57:30;101155.59;;;27.59;35.43
76460;BME280;65299;46.084;18.762;2023-09-08T10:00:33;101156.81;;;27.12;36.14
76460;BME280;65299;46.084;18.762;2023-09-08T10:03:34;101152.31;;;27.50;34.25
76460;BME280;65299;46.084;18.762;2023-09-08T10:06:39;101159.19;;;27.79;33.12
76460;BME280;65299;46.084;18.762;2023-09-08T10:09:39;101150.88;;;27.56;33.15
76460;BME280;65299;46.084;18.762;2023-09-08T10:12:43;101156.66;;;27.70;32.31
76460;BME280;65299;46.084;18.762;2023-09-08T10:15:44;101148.47;;;27.89;33.27
76460;BME280;65299;46.084;18.762;2023-09-08T10:18:47;101144.66;;;28.10;31.58
76460;BME280;65299;46.084;18.762;2023-09-08T10:21:48;101154.13;;;27.97;31.98
76460;BME280;65299;46.084;18.762;2023-09-08T10:24:53;101143.56;;;27.60;31.73
76460;BME280;65299;46.084;18.762;2023-09-08T10:27:54;101143.00;;;27.70;31.41
76460;BME280;65299;46.084;18.762;2023-09-08T10:30:55;101133.53;;;27.83;31.98
76460;BME280;65299;46.084;18.762;2023-09-08T10:33:56;101132.28;;;27.97;32.66
76460;BME280;65299;46.084;18.762;2023-09-08T10:36:57;101132.63;;;28.33;33.94
76460;BME280;65299;46.084;18.762;2023-09-08T10:40:20;101136.63;;;28.39;32.61
76460;BME280;65299;46.084;18.762;2023-09-08T10:43:20;101129.63;;;28.61;32.61
76460;BME280;65299;46.084;18.762;2023-09-08T10:46:23;101119.44;;;28.81;33.26
76460;BME280;65299;46.084;18.762;2023-09-08T10:49:23;101114.34;;;28.79;33.07
76460;BME280;65299;46.084;18.762;2023-09-08T10:52:24;101110.41;;;28.35;33.57
76460;BME280;65299;46.084;18.762;2023-09-08T10:55:35;101119.03;;;28.56;30.95
76460;BME280;65299;46.084;18.762;2023-09-08T10:58:37;101114.03;;;28.20;31.12
76460;BME280;65299;46.084;18.762;2023-09-08T11:01:43;101114.63;;;28.51;31.27
76460;BME280;65299;46.084;18.762;2023-09-08T11:04:44;101103.56;;;28.44;32.00
76460;BME280;65299;46.084;18.762;2023-09-08T11:07:45;101103.19;;;28.46;32.76
76460;BME280;65299;46.084;18.762;2023-09-08T11:10:46;101093.34;;;28.60;32.57
76460;BME280;65299;46.084;18.762;2023-09-08T11:13:46;101091.25;;;28.99;31.08
76460;BME280;65299;46.084;18.762;2023-09-08T11:16:47;101086.72;;;29.10;31.43
76460;BME280;65299;46.084;18.762;2023-09-08T11:19:49;101085.84;;;29.03;31.81
76460;BME280;65299;46.084;18.762;2023-09-08T11:22:50;101080.84;;;29.34;31.00
76460;BME280;65299;46.084;18.762;2023-09-08T11:25:51;101084.56;;;28.97;32.15
76460;BME280;65299;46.084;18.762;2023-09-08T11:28:51;101080.47;;;29.10;32.05
76460;BME280;65299;46.084;18.762;2023-09-08T11:31:54;101080.66;;;28.98;31.96
76460;BME280;65299;46.084;18.762;2023-09-08T11:35:02;101080.66;;;29.20;31.57
76460;BME280;65299;46.084;18.762;2023-09-08T11:38:03;101078.69;;;29.47;31.89
76460;BME280;65299;46.084;18.762;2023-09-08T11:41:05;101071.53;;;29.13;31.16
76460;BME280;65299;46.084;18.762;2023-09-08T11:44:05;101068.16;;;29.49;30.66
76460;BME280;65299;46.084;18.762;2023-09-08T11:47:21;101068.38;;;29.11;32.32
76460;BME280;65299;46.084;18.762;2023-09-08T11:50:22;101064.44;;;29.34;31.28
76460;BME280;65299;46.084;18.762;2023-09-08T11:53:23;101051.59;;;29.38;31.82
76460;BME280;65299;46.084;18.762;2023-09-08T11:56:24;101050.94;;;29.48;31.12
76460;BME280;65299;46.084;18.762;2023-09-08T11:59:25;101046.00;;;29.58;30.47
76460;BME280;65299;46.084;18.762;2023-09-08T12:02:26;101041.56;;;29.79;30.41
76460;BME280;65299;46.084;18.762;2023-09-08T12:05:28;101049.78;;;29.79;31.28
76460;BME280;65299;46.084;18.762;2023-09-08T12:08:29;101039.69;;;29.54;30.69
76460;BME280;65299;46.084;18.762;2023-09-08T12:11:34;101040.00;;;29.78;31.29
76460;BME280;65299;46.084;18.762;2023-09-08T12:14:42;101041.13;;;29.44;32.27
76460;BME280;65299;46.084;18.762;2023-09-08T12:17:49;101030.47;;;29.09;32.87
76460;BME280;65299;46.084;18.762;2023-09-08T12:21:03;101031.59;;;28.56;34.01
76460;BME280;65299;46.084;18.762;2023-09-08T12:24:05;101023.19;;;28.91;34.43
76460;BME280;65299;46.084;18.762;2023-09-08T12:27:06;101014.50;;;29.41;33.22
76460;BME280;65299;46.084;18.762;2023-09-08T12:30:06;101015.16;;;29.31;33.06
76460;BME280;65299;46.084;18.762;2023-09-08T12:33:08;101025.00;;;29.09;34.49
76460;BME280;65299;46.084;18.762;2023-09-08T12:36:14;101010.47;;;29.28;32.63
76460;BME280;65299;46.084;18.762;2023-09-08T12:39:15;101005.38;;;29.60;31.39
76460;BME280;65299;46.084;18.762;2023-09-08T12:42:15;101004.19;;;29.61;30.82
76460;BME280;65299;46.084;18.762;2023-09-08T12:45:16;100999.94;;;29.63;31.02
76460;BME280;65299;46.084;18.762;2023-09-08T12:48:16;100998.81;;;29.68;31.91
76460;BME280;65299;46.084;18.762;2023-09-08T12:51:16;101001.72;;;29.82;31.69
76460;BME280;65299;46.084;18.762;2023-09-08T12:54:17;101002.34;;;29.38;32.37
76460;BME280;65299;46.084;18.762;2023-09-08T12:57:17;101001.56;;;29.08;31.89
76460;BME280;65299;46.084;18.762;2023-09-08T13:00:18;100998.13;;;29.44;32.82
76460;BME280;65299;46.084;18.762;2023-09-08T13:03:18;100998.69;;;29.57;31.94
76460;BME280;65299;46.084;18.762;2023-09-08T13:06:18;100987.03;;;29.30;31.35
76460;BME280;65299;46.084;18.762;2023-09-08T13:09:19;100992.78;;;29.55;31.96
76460;BME280;65299;46.084;18.762;2023-09-08T13:12:20;100994.66;;;29.47;31.95
76460;BME280;65299;46.084;18.762;2023-09-08T13:15:21;100985.50;;;29.66;31.97
76460;BME280;65299;46.084;18.762;2023-09-08T13:18:21;100985.16;;;29.08;32.15
76460;BME280;65299;46.084;18.762;2023-09-08T13:21:21;100984.44;;;29.41;31.70
76460;BME280;65299;46.084;18.762;2023-09-08T13:24:22;100980.84;;;29.67;31.00
76460;BME280;65299;46.084;18.762;2023-09-08T13:27:22;100972.69;;;29.40;31.04
76460;BME280;65299;46.084;18.762;2023-09-08T13:30:23;100982.38;;;29.68;31.05
76460;BME280;65299;46.084;18.762;2023-09-08T13:33:26;100975.25;;;29.93;29.99
76460;BME280;65299;46.084;18.762;2023-09-08T13:36:27;100968.56;;;29.87;30.05
76460;BME280;65299;46.084;18.762;2023-09-08T13:39:27;100972.00;;;29.47;30.79
76460;BME280;65299;46.084;18.762;2023-09-08T13:42:28;100975.53;;;29.47;30.69
76460;BME280;65299;46.084;18.762;2023-09-08T13:45:28;100961.34;;;29.38;30.34
76460;BME280;65299;46.084;18.762;2023-09-08T13:48:29;100965.25;;;29.37;30.27
76460;BME280;65299;46.084;18.762;2023-09-08T13:51:29;100962.16;;;29.42;30.45
76460;BME280;65299;46.084;18.762;2023-09-08T13:54:29;100952.81;;;29.43;30.51
76460;BME280;65299;46.084;18.762;2023-09-08T13:57:30;100950.31;;;29.31;30.69
76460;BME280;65299;46.084;18.762;2023-09-08T14:00:30;100948.91;;;29.44;30.59
76460;BME280;65299;46.084;18.762;2023-09-08T14:03:30;100950.25;;;29.94;29.98
76460;BME280;65299;46.084;18.762;2023-09-08T14:06:31;100948.75;;;29.67;31.77
76460;BME280;65299;46.084;18.762;2023-09-08T14:09:32;100948.22;;;29.55;32.47
76460;BME280;65299;46.084;18.762;2023-09-08T14:12:33;100945.66;;;29.69;32.26
76460;BME280;65299;46.084;18.762;2023-09-08T14:15:34;100942.53;;;29.33;30.97
76460;BME280;65299;46.084;18.762;2023-09-08T14:18:34;100924.63;;;29.73;30.06
76460;BME280;65299;46.084;18.762;2023-09-08T14:21:35;100933.81;;;29.94;29.89
76460;BME280;65299;46.084;18.762;2023-09-08T14:24:37;100930.25;;;29.54;31.23
76460;BME280;65299;46.084;18.762;2023-09-08T14:27:37;100933.31;;;29.82;31.05
76460;BME280;65299;46.084;18.762;2023-09-08T14:30:38;100931.38;;;29.82;30.55
76460;BME280;65299;46.084;18.762;2023-09-08T14:33:40;100929.84;;;29.52;31.67
76460;BME280;65299;46.084;18.762;2023-09-08T14:36:41;100925.16;;;29.19;31.79
76460;BME280;65299;46.084;18.762;2023-09-08T14:39:41;100926.31;;;29.51;32.31
76460;BME280;65299;46.084;18.762;2023-09-08T14:42:41;100923.84;;;29.72;31.89
76460;BME280;65299;46.084;18.762;2023-09-08T14:45:42;100927.91;;;29.19;33.61
76460;BME280;65299;46.084;18.762;2023-09-08T14:48:42;100922.72;;;29.14;33.46
76460;BME280;65299;46.084;18.762;2023-09-08T14:51:43;100922.03;;;29.54;33.48
76460;BME280;65299;46.084;18.762;2023-09-08T14:54:43;100913.75;;;29.46;32.56
76460;BME280;65299;46.084;18.762;2023-09-08T14:57:44;100916.06;;;29.44;32.12
76460;BME280;65299;46.084;18.762;2023-09-08T15:00:45;100923.84;;;29.39;33.07
76460;BME280;65299;46.084;18.762;2023-09-08T15:03:46;100922.06;;;28.91;34.65
76460;BME280;65299;46.084;18.762;2023-09-08T15:06:47;100919.47;;;29.34;33.66
76460;BME280;65299;46.084;18.762;2023-09-08T15:09:47;100922.97;;;29.31;33.74
76460;BME280;65299;46.084;18.762;2023-09-08T15:12:47;100916.75;;;29.34;32.90
76460;BME280;65299;46.084;18.762;2023-09-08T15:15:48;100912.88;;;30.16;31.55
76460;BME280;65299;46.084;18.762;2023-09-08T15:18:49;100908.59;;;31.80;29.14
76460;BME280;65299;46.084;18.762;2023-09-08T15:21:50;100911.34;;;32.40;27.27
76460;BME280;65299;46.084;18.762;2023-09-08T15:24:50;100904.56;;;32.87;26.78
76460;BME280;65299;46.084;18.762;2023-09-08T15:27:51;100905.84;;;32.43;27.33
76460;BME280;65299;46.084;18.762;2023-09-08T15:30:54;100906.47;;;32.97;25.89
76460;BME280;65299;46.084;18.762;2023-09-08T15:33:54;100910.00;;;33.15;26.35
76460;BME280;65299;46.084;18.762;2023-09-08T15:36:54;100909.75;;;32.42;26.97
76460;BME280;65299;46.084;18.762;2023-09-08T15:39:55;100913.22;;;31.41;28.82